Midland, Nebraska
Current Conditions -  °F | °C
As of 9:53 PM on Tuesday 21 Oct 2014 (Local Time) from KGRI Reporting Station
Clear Clear  
Wind Chill: 64°   Ceiling: Unl
Heat Index: 64°   Visibility: 10mi
Dew Point: 48°   Wind: 13mph
Humidity: 56%   Direction: 150°SSE
Pressure: 29.98"   Gusts: NA
Location:  41.1769°N, 98.1165°W
Report Text: KGRI 220253Z AUTO 15011KT 10SM CLR 18/09 A2998 RMK AO2 SLP148 T01780089 51004
Loading
Personal Weather Stations






























Interactive Weather Map
Tropical Storm Tracking
New forecast layout! Learn more

10-Day Weather Forecast

Advertisements
Track Severe Weather on mobile